createdAt,value
2023-04-08T00:02:12.900Z,4.67
2023-04-08T00:05:16.050Z,4.55
2023-04-08T00:08:18.411Z,4.49
2023-04-08T00:11:20.639Z,4.22
2023-04-08T00:14:22.989Z,4.15
2023-04-08T00:17:25.325Z,4.17
2023-04-08T00:20:27.738Z,4.25
2023-04-08T00:23:30.326Z,4.29
2023-04-08T00:26:33.834Z,4.24
2023-04-08T00:29:36.334Z,4.11
2023-04-08T00:32:38.677Z,4.07
2023-04-08T00:35:41.100Z,4.01
2023-04-08T00:38:43.562Z,3.98
2023-04-08T00:41:45.864Z,4.04
2023-04-08T00:44:48.674Z,4.07
2023-04-08T00:47:52.919Z,4.09
2023-04-08T00:50:55.366Z,4.18
2023-04-08T00:53:57.798Z,4.28
2023-04-08T00:57:01.286Z,4.25
2023-04-08T01:00:10.850Z,4.41
2023-04-08T01:03:24.605Z,4.28
2023-04-08T01:06:54.260Z,4.21
2023-04-08T01:10:02.203Z,4.19
2023-04-08T01:13:08.593Z,4.04
2023-04-08T01:16:15.504Z,4.07
2023-04-08T01:19:33.801Z,3.91
2023-04-08T01:22:42.418Z,3.73
2023-04-08T01:26:09.572Z,3.78
2023-04-08T01:29:14.194Z,3.62
2023-04-08T01:32:17.282Z,3.59
2023-04-08T01:35:19.819Z,3.54
2023-04-08T01:38:24.550Z,3.56
2023-04-08T01:41:27.783Z,3.49
2023-04-08T01:44:30.683Z,3.37
2023-04-08T01:47:35.106Z,3.15
2023-04-08T01:50:38.333Z,3.08
2023-04-08T01:53:40.794Z,3.09
2023-04-08T01:56:45.730Z,3.06
2023-04-08T01:59:52.304Z,3.05
2023-04-08T02:02:55.925Z,3.01
2023-04-08T02:05:58.329Z,3.04
2023-04-08T02:09:01.865Z,3.09
2023-04-08T02:12:04.285Z,3.15
2023-04-08T02:15:07.954Z,3.19
2023-04-08T02:18:16.712Z,3.23
2023-04-08T02:21:24.687Z,3.16
2023-04-08T02:24:29.380Z,3.18
2023-04-08T02:27:34.790Z,3.08
2023-04-08T02:30:41.362Z,3.08
2023-04-08T02:33:44.281Z,2.87
2023-04-08T02:36:48.020Z,2.88
2023-04-08T02:39:51.978Z,2.84
2023-04-08T02:42:55.016Z,2.94
2023-04-08T02:45:58.340Z,3.04
2023-04-08T02:49:00.618Z,2.88
2023-04-08T02:52:02.937Z,2.77
2023-04-08T02:55:06.828Z,2.84
2023-04-08T02:58:09.049Z,3.09
2023-04-08T03:01:11.323Z,3.18
2023-04-08T03:04:13.745Z,2.94
2023-04-08T03:07:16.349Z,2.92
2023-04-08T03:10:22.187Z,3.08
2023-04-08T03:13:24.495Z,3.11
2023-04-08T03:16:27.088Z,2.96
2023-04-08T03:19:29.402Z,2.55
2023-04-08T03:22:31.779Z,2.34
2023-04-08T03:25:34.006Z,2.26
2023-04-08T03:28:36.611Z,2.23
2023-04-08T03:31:38.915Z,2.31
2023-04-08T03:34:41.263Z,2.58
2023-04-08T03:37:43.510Z,2.65
2023-04-08T03:40:45.796Z,2.70
2023-04-08T03:43:48.023Z,2.51
2023-04-08T03:46:50.497Z,2.71
2023-04-08T03:49:55.921Z,2.88
2023-04-08T03:52:58.305Z,2.96
2023-04-08T03:56:01.552Z,3.05
2023-04-08T03:59:03.769Z,3.06
2023-04-08T04:02:06.349Z,3.13
2023-04-08T04:05:08.823Z,3.30
2023-04-08T04:08:11.071Z,3.12
2023-04-08T04:11:13.355Z,3.16
2023-04-08T04:14:16.394Z,3.27
2023-04-08T04:17:18.793Z,3.36
2023-04-08T04:20:21.932Z,3.42
2023-04-08T04:23:25.963Z,3.49
2023-04-08T04:26:28.296Z,3.56
2023-04-08T04:29:32.016Z,3.50
2023-04-08T04:32:34.289Z,3.33
2023-04-08T04:35:36.529Z,3.44
2023-04-08T04:38:39.118Z,3.46
2023-04-08T04:41:41.389Z,3.60
2023-04-08T04:44:44.733Z,3.69
2023-04-08T04:47:47.050Z,3.77
2023-04-08T04:51:01.385Z,3.83
2023-04-08T04:54:03.785Z,3.91
2023-04-08T04:57:06.176Z,4.05
2023-04-08T05:00:09.670Z,4.04
2023-04-08T05:03:12.064Z,4.07
2023-04-08T05:06:14.431Z,3.90
2023-04-08T05:09:16.647Z,3.95
2023-04-08T05:12:20.795Z,3.90
2023-04-08T05:15:23.055Z,3.81
2023-04-08T05:18:25.343Z,3.84
2023-04-08T05:21:27.773Z,4.05
2023-04-08T05:24:30.129Z,4.12
2023-04-08T05:27:32.794Z,4.17
2023-04-08T05:30:35.107Z,4.31
2023-04-08T05:33:37.441Z,4.42
2023-04-08T05:36:39.657Z,4.49
2023-04-08T05:39:42.736Z,4.60
2023-04-08T05:42:45.324Z,4.63
2023-04-08T05:45:47.660Z,4.83
2023-04-08T05:48:50.182Z,4.90
2023-04-08T05:51:52.565Z,5.03
2023-04-08T05:54:54.871Z,5.11
2023-04-08T05:57:57.121Z,5.23
2023-04-08T06:00:59.371Z,5.27
2023-04-08T06:04:02.005Z,5.27
2023-04-08T06:07:06.069Z,5.27
2023-04-08T06:10:08.840Z,5.35
2023-04-08T06:13:11.338Z,5.47
2023-04-08T06:16:15.904Z,5.63
2023-04-08T06:19:19.467Z,5.73
2023-04-08T06:22:21.816Z,5.72
2023-04-08T06:25:24.828Z,5.71
2023-04-08T06:28:28.956Z,5.37
2023-04-08T06:31:31.455Z,5.45
2023-04-08T06:34:33.728Z,5.48
2023-04-08T06:37:38.810Z,5.16
2023-04-08T06:40:41.283Z,5.08
2023-04-08T06:43:43.560Z,5.00
2023-04-08T06:46:45.878Z,5.14
2023-04-08T06:49:48.445Z,5.17
2023-04-08T06:52:50.723Z,5.28
2023-04-08T06:55:53.963Z,5.37
2023-04-08T06:58:56.276Z,5.51
2023-04-08T07:01:58.737Z,5.58
2023-04-08T07:05:01.269Z,5.63
2023-04-08T07:08:04.328Z,5.72
2023-04-08T07:11:07.819Z,5.69
2023-04-08T07:14:12.282Z,5.72
2023-04-08T07:17:14.827Z,5.82
2023-04-08T07:20:18.403Z,5.73
2023-04-08T07:23:37.602Z,5.76
2023-04-08T07:26:42.165Z,5.80
2023-04-08T07:29:54.379Z,5.86
2023-04-08T07:33:00.006Z,5.89
2023-04-08T07:36:03.845Z,5.75
2023-04-08T07:39:07.419Z,5.88
2023-04-08T07:42:10.571Z,5.99
2023-04-08T07:45:14.872Z,6.29
2023-04-08T07:48:18.133Z,6.19
2023-04-08T07:51:21.699Z,6.31
2023-04-08T07:54:28.542Z,6.63
2023-04-08T07:57:31.738Z,6.77
2023-04-08T08:00:35.051Z,6.72
2023-04-08T08:03:40.398Z,6.71
2023-04-08T08:06:42.746Z,6.77
2023-04-08T08:09:45.793Z,7.05
2023-04-08T08:12:49.071Z,6.98
2023-04-08T08:15:54.605Z,7.02
2023-04-08T08:18:57.706Z,7.15
2023-04-08T08:22:00.994Z,7.37
2023-04-08T08:25:06.518Z,7.37
2023-04-08T08:28:08.827Z,7.18
2023-04-08T08:31:12.490Z,7.23
2023-04-08T08:34:15.653Z,7.01
2023-04-08T08:37:17.942Z,6.95
2023-04-08T08:40:20.403Z,7.01
2023-04-08T08:43:24.439Z,7.29
2023-04-08T08:46:27.694Z,7.27
2023-04-08T08:49:30.814Z,7.52
2023-04-08T08:52:39.346Z,7.36
2023-04-08T08:58:59.361Z,7.02
2023-04-08T09:02:30.873Z,6.99
2023-04-08T09:05:53.261Z,7.09
2023-04-08T09:08:56.197Z,7.18
2023-04-08T09:12:04.943Z,7.13
2023-04-08T09:15:19.725Z,7.03
2023-04-08T09:18:23.043Z,7.12
2023-04-08T09:21:27.456Z,7.25
2023-04-08T09:24:31.217Z,7.26
2023-04-08T09:27:35.642Z,7.42
2023-04-08T09:30:38.081Z,7.50
2023-04-08T09:33:40.511Z,7.83
2023-04-08T09:36:44.604Z,7.93
2023-04-08T09:39:46.880Z,8.34
2023-04-08T09:42:53.696Z,8.70
2023-04-08T09:45:57.403Z,9.07
2023-04-08T09:49:27.345Z,9.16
2023-04-08T09:52:34.251Z,9.37
2023-04-08T09:55:37.364Z,9.28
2023-04-08T09:58:44.955Z,9.30
2023-04-08T10:01:54.056Z,9.26
2023-04-08T10:05:00.360Z,9.01
2023-04-08T10:08:03.058Z,9.18
2023-04-08T10:11:05.726Z,9.24
2023-04-08T10:14:09.699Z,9.11
2023-04-08T10:17:26.745Z,9.07
2023-04-08T10:20:36.142Z,9.13
2023-04-08T10:23:57.730Z,9.17
2023-04-08T10:27:02.833Z,9.07
2023-04-08T10:30:27.992Z,8.77
2023-04-08T10:33:30.276Z,9.03
2023-04-08T10:36:32.503Z,9.03
2023-04-08T10:39:38.698Z,9.23
2023-04-08T10:42:41.096Z,9.21
2023-04-08T10:45:46.475Z,9.23
2023-04-08T10:49:01.747Z,9.35
2023-04-08T10:52:07.520Z,9.59
2023-04-08T10:55:09.876Z,9.77
2023-04-08T10:58:12.739Z,9.92
2023-04-08T11:01:15.061Z,9.78
2023-04-08T11:04:19.682Z,9.93
2023-04-08T11:07:22.064Z,9.61
2023-04-08T11:10:24.831Z,9.63
2023-04-08T11:13:28.842Z,9.81
2023-04-08T11:16:31.380Z,9.55
2023-04-08T11:19:36.121Z,9.35
2023-04-08T11:22:41.233Z,9.39
2023-04-08T11:25:44.766Z,9.47
2023-04-08T11:28:49.352Z,9.63
2023-04-08T11:31:51.999Z,9.74
2023-04-08T11:34:54.428Z,9.79
2023-04-08T11:37:57.985Z,9.93
2023-04-08T11:41:00.502Z,10.26
2023-04-08T11:44:02.847Z,10.51
2023-04-08T11:47:05.181Z,11.09
2023-04-08T11:50:08.471Z,11.36
2023-04-08T11:53:26.413Z,11.84
2023-04-08T11:56:30.552Z,12.05
2023-04-08T11:59:32.817Z,12.08
2023-04-08T12:02:35.232Z,12.14
2023-04-08T12:05:37.624Z,12.25
2023-04-08T12:08:39.858Z,12.52
2023-04-08T12:11:42.688Z,12.72
2023-04-08T12:14:44.882Z,12.85
2023-04-08T12:17:47.221Z,13.10
2023-04-08T12:20:49.502Z,12.54
2023-04-08T12:23:53.505Z,12.93
2023-04-08T12:26:56.631Z,11.87
2023-04-08T12:29:59.538Z,11.32
2023-04-08T12:33:01.761Z,11.53
2023-04-08T12:36:04.181Z,10.91
2023-04-08T12:39:06.673Z,10.71
2023-04-08T12:42:09.219Z,10.61
2023-04-08T12:45:11.652Z,10.50
2023-04-08T12:48:13.912Z,10.67
2023-04-08T12:51:16.166Z,10.39
2023-04-08T12:54:18.696Z,10.64
2023-04-08T12:57:20.935Z,10.88
2023-04-08T13:00:23.214Z,11.00
2023-04-08T13:03:25.987Z,10.54
2023-04-08T13:06:28.499Z,10.37
2023-04-08T13:09:30.909Z,10.46
2023-04-08T13:12:33.263Z,10.50
2023-04-08T13:15:35.554Z,10.43
2023-04-08T13:18:38.009Z,10.30
2023-04-08T13:21:40.637Z,10.53
2023-04-08T13:24:43.843Z,10.53
2023-04-08T13:27:46.151Z,10.57
2023-04-08T13:30:48.386Z,10.50
2023-04-08T13:33:50.657Z,10.65
2023-04-08T13:36:53.123Z,10.78
2023-04-08T13:39:55.564Z,10.74
2023-04-08T13:42:57.799Z,10.84
2023-04-08T13:46:00.176Z,10.87
2023-04-08T13:49:03.293Z,11.44
2023-04-08T13:52:05.565Z,11.70
2023-04-08T13:55:08.318Z,11.83
2023-04-08T13:58:21.238Z,11.76
2023-04-08T14:01:25.936Z,11.59
2023-04-08T14:04:28.398Z,11.70
2023-04-08T14:07:30.732Z,11.42
2023-04-08T14:10:33.018Z,11.42
2023-04-08T14:13:35.434Z,11.32
2023-04-08T14:16:38.040Z,11.26
2023-04-08T14:19:40.740Z,10.88
2023-04-08T14:22:42.998Z,11.09
2023-04-08T14:25:45.221Z,11.09
2023-04-08T14:28:50.511Z,10.65
2023-04-08T14:31:52.908Z,10.34
2023-04-08T14:34:55.146Z,10.33
2023-04-08T14:37:57.360Z,10.51
2023-04-08T14:40:59.595Z,9.52
2023-04-08T14:44:01.907Z,9.37
2023-04-08T14:47:04.162Z,9.26
2023-04-08T14:50:07.171Z,9.28
2023-04-08T14:53:09.414Z,9.38
2023-04-08T14:56:12.295Z,9.27
2023-04-08T14:59:14.505Z,9.47
2023-04-08T15:02:16.893Z,9.61
2023-04-08T15:05:19.230Z,9.67
2023-04-08T15:08:22.001Z,9.41
2023-04-08T15:11:24.350Z,9.44
2023-04-08T15:14:26.866Z,9.57
2023-04-08T15:17:29.143Z,9.63
2023-04-08T15:20:31.482Z,9.65
2023-04-08T15:23:33.823Z,9.55
2023-04-08T15:26:36.065Z,9.57
2023-04-08T15:29:38.279Z,9.26
2023-04-08T15:32:41.530Z,9.38
2023-04-08T15:35:49.720Z,9.39
2023-04-08T15:38:52.725Z,9.57
2023-04-08T15:41:55.216Z,9.68
2023-04-08T15:44:57.426Z,9.58
2023-04-08T15:47:59.714Z,9.55
2023-04-08T15:51:08.513Z,9.47
2023-04-08T15:54:11.633Z,9.35
2023-04-08T15:57:15.247Z,9.27
2023-04-08T16:00:18.547Z,9.03
2023-04-08T16:03:21.913Z,9.01
2023-04-08T16:06:24.271Z,8.86
2023-04-08T16:09:27.288Z,8.59
2023-04-08T16:12:29.570Z,8.55
2023-04-08T16:15:32.076Z,8.60
2023-04-08T16:18:34.762Z,8.24
2023-04-08T16:21:37.245Z,8.11
2023-04-08T16:24:39.501Z,8.14
2023-04-08T16:27:41.916Z,8.20
2023-04-08T16:30:44.387Z,8.04
2023-04-08T16:33:46.832Z,7.98
2023-04-08T16:36:49.171Z,8.14
2023-04-08T16:39:51.404Z,7.93
2023-04-08T16:42:56.630Z,7.93
2023-04-08T16:45:59.007Z,7.97
2023-04-08T16:49:01.385Z,8.07
2023-04-08T16:52:03.666Z,7.88
2023-04-08T16:55:06.710Z,7.93
2023-04-08T16:58:09.817Z,8.07
2023-04-08T17:01:16.235Z,7.67
2023-04-08T17:04:19.284Z,7.73
2023-04-08T17:07:23.632Z,7.63
2023-04-08T17:10:26.291Z,7.53
2023-04-08T17:13:28.536Z,7.50
2023-04-08T17:16:31.222Z,7.35
2023-04-08T17:19:33.454Z,7.29
2023-04-08T17:22:36.466Z,7.39
2023-04-08T17:25:38.710Z,7.33
2023-04-08T17:28:40.953Z,7.42
2023-04-08T17:31:44.441Z,7.32
2023-04-08T17:34:47.384Z,7.39
2023-04-08T17:37:50.837Z,7.42
2023-04-08T17:40:53.155Z,7.40
2023-04-08T17:43:55.461Z,7.25
2023-04-08T17:46:57.753Z,7.20
2023-04-08T17:49:59.970Z,7.20
2023-04-08T17:53:02.868Z,7.22
2023-04-08T17:56:06.231Z,7.16
2023-04-08T17:59:08.579Z,7.19
2023-04-08T18:02:11.760Z,7.16
2023-04-08T18:05:14.206Z,7.15
2023-04-08T18:08:16.470Z,7.05
2023-04-08T18:11:19.685Z,6.96
2023-04-08T18:14:21.905Z,7.09
2023-04-08T18:17:24.222Z,7.06
2023-04-08T18:20:26.674Z,7.11
2023-04-08T18:23:28.882Z,7.05
2023-04-08T18:26:31.437Z,7.01
2023-04-08T18:29:33.809Z,7.09
2023-04-08T18:32:36.040Z,7.13
2023-04-08T18:35:38.336Z,6.94
2023-04-08T18:38:41.263Z,7.03
2023-04-08T18:41:44.069Z,6.99
2023-04-08T18:44:46.393Z,6.99
2023-04-08T18:47:48.696Z,6.94
2023-04-08T18:50:51.051Z,6.92
2023-04-08T18:53:53.467Z,6.72
2023-04-08T18:56:56.638Z,6.89
2023-04-08T18:59:58.848Z,6.91
2023-04-08T19:03:03.429Z,6.92
2023-04-08T19:06:11.506Z,6.74
2023-04-08T19:09:14.480Z,6.77
2023-04-08T19:12:16.889Z,6.68
2023-04-08T19:15:19.083Z,6.67
2023-04-08T19:18:21.831Z,6.70
2023-04-08T19:21:24.112Z,6.68
2023-04-08T19:24:26.382Z,6.61
2023-04-08T19:27:28.596Z,6.72
2023-04-08T19:30:30.867Z,6.80
2023-04-08T19:33:33.096Z,6.78
2023-04-08T19:36:35.344Z,6.77
2023-04-08T19:39:41.746Z,6.75
2023-04-08T19:42:50.638Z,6.63
2023-04-08T19:45:54.915Z,6.61
2023-04-08T19:48:58.978Z,6.68
2023-04-08T19:52:01.369Z,6.72
2023-04-08T19:55:03.837Z,6.70
2023-04-08T19:58:06.453Z,6.70
2023-04-08T20:01:10.161Z,6.53
2023-04-08T20:04:12.600Z,6.64
2023-04-08T20:07:14.974Z,6.61
2023-04-08T20:10:17.545Z,6.65
2023-04-08T20:13:20.846Z,6.63
2023-04-08T20:16:23.121Z,6.55
2023-04-08T20:19:25.882Z,6.65
2023-04-08T20:22:28.248Z,6.60
2023-04-08T20:25:30.600Z,6.44
2023-04-08T20:28:32.843Z,6.47
2023-04-08T20:31:35.174Z,6.57
2023-04-08T20:34:37.469Z,6.58
2023-04-08T20:37:39.870Z,6.50
2023-04-08T20:40:44.215Z,6.45
2023-04-08T20:43:46.628Z,6.40
2023-04-08T20:46:49.835Z,6.40
2023-04-08T20:49:52.954Z,6.41
2023-04-08T20:52:55.203Z,6.45
2023-04-08T20:55:57.442Z,6.43
2023-04-08T20:59:00.421Z,6.37
2023-04-08T21:02:03.584Z,6.40
2023-04-08T21:05:06.119Z,6.36
2023-04-08T21:08:08.934Z,6.36
2023-04-08T21:11:11.567Z,6.40
2023-04-08T21:14:13.899Z,6.34
2023-04-08T21:17:16.181Z,6.38
2023-04-08T21:20:18.581Z,6.33
2023-04-08T21:23:21.453Z,6.37
2023-04-08T21:26:23.700Z,6.44
2023-04-08T21:29:25.955Z,6.55
2023-04-08T21:32:30.198Z,6.57
2023-04-08T21:35:32.818Z,6.41
2023-04-08T21:38:35.247Z,6.34
2023-04-08T21:41:37.515Z,6.45
2023-04-08T21:44:39.902Z,6.44
2023-04-08T21:47:42.139Z,6.38
2023-04-08T21:50:45.680Z,6.30
2023-04-08T21:53:48.034Z,6.34
2023-04-08T21:56:50.265Z,6.37
2023-04-08T21:59:52.710Z,6.26
2023-04-08T22:02:55.136Z,6.30
2023-04-08T22:05:57.626Z,6.37
2023-04-08T22:09:00.659Z,6.36
2023-04-08T22:12:03.052Z,6.27
2023-04-08T22:15:06.371Z,6.27
2023-04-08T22:18:08.634Z,6.31
2023-04-08T22:21:10.986Z,6.23
2023-04-08T22:24:13.214Z,6.23
2023-04-08T22:27:15.519Z,6.23
2023-04-08T22:30:17.816Z,6.17
2023-04-08T22:33:20.075Z,6.23
2023-04-08T22:36:22.302Z,6.29
2023-04-08T22:39:26.177Z,6.26
2023-04-08T22:42:28.489Z,6.20
2023-04-08T22:45:30.929Z,6.16
2023-04-08T22:48:33.134Z,6.20
2023-04-08T22:51:35.446Z,6.23
2023-04-08T22:54:37.738Z,6.19
2023-04-08T22:57:39.998Z,6.10
2023-04-08T23:00:42.371Z,6.12
2023-04-08T23:03:44.697Z,6.14
2023-04-08T23:06:47.329Z,6.07
2023-04-08T23:09:49.765Z,6.05
2023-04-08T23:12:52.009Z,6.09
2023-04-08T23:15:57.414Z,6.00
2023-04-08T23:18:59.732Z,5.99
2023-04-08T23:22:01.976Z,5.89
2023-04-08T23:25:04.559Z,5.86
2023-04-08T23:28:06.852Z,5.88
2023-04-08T23:31:09.171Z,5.98
2023-04-08T23:34:11.813Z,5.99
2023-04-08T23:37:14.132Z,5.89
2023-04-08T23:40:16.490Z,5.90
2023-04-08T23:43:18.703Z,5.92
2023-04-08T23:46:20.962Z,5.90
2023-04-08T23:49:23.288Z,5.89
2023-04-08T23:52:25.530Z,5.90
2023-04-08T23:55:27.777Z,5.93
2023-04-08T23:58:30.017Z,5.89
